createdAt,value
2018-07-24T00:02:35.650Z,16.80
2018-07-24T00:05:04.771Z,16.80
2018-07-24T00:07:33.675Z,16.80
2018-07-24T00:10:03.654Z,16.80
2018-07-24T00:12:32.853Z,16.80
2018-07-24T00:15:01.843Z,16.70
2018-07-24T00:17:30.827Z,16.70
2018-07-24T00:19:59.894Z,16.70
2018-07-24T00:22:28.831Z,16.60
2018-07-24T00:24:57.830Z,16.70
2018-07-24T00:27:26.770Z,16.70
2018-07-24T00:29:55.753Z,16.70
2018-07-24T00:32:24.833Z,16.70
2018-07-24T00:34:53.810Z,16.70
2018-07-24T00:37:22.794Z,16.60
2018-07-24T00:39:51.784Z,16.70
2018-07-24T00:42:20.689Z,16.60
2018-07-24T00:44:49.614Z,16.60
2018-07-24T00:47:18.557Z,16.60
2018-07-24T00:49:47.487Z,16.60
2018-07-24T00:52:16.502Z,16.70
2018-07-24T00:54:45.554Z,16.70
2018-07-24T00:57:14.628Z,16.70
2018-07-24T00:59:43.593Z,16.70
2018-07-24T01:02:12.651Z,16.70
2018-07-24T01:04:41.854Z,16.70
2018-07-24T01:07:10.835Z,16.70
2018-07-24T01:09:39.851Z,16.70
2018-07-24T01:12:08.831Z,16.70
2018-07-24T01:14:37.752Z,16.70
2018-07-24T01:17:06.820Z,16.70
2018-07-24T01:19:35.929Z,16.70
2018-07-24T01:22:05.016Z,16.70
2018-07-24T01:24:34.051Z,16.70
2018-07-24T01:29:31.469Z,16.70
2018-07-24T01:32:00.670Z,16.70
2018-07-24T01:34:29.683Z,16.80
2018-07-24T01:36:58.667Z,16.70
2018-07-24T01:39:27.507Z,16.70
2018-07-24T01:41:56.491Z,16.70
2018-07-24T01:44:25.435Z,16.70
2018-07-24T01:46:54.495Z,16.70
2018-07-24T01:49:23.431Z,16.80
2018-07-24T01:51:52.316Z,16.80
2018-07-24T01:54:21.337Z,16.80
2018-07-24T01:56:50.341Z,16.80
2018-07-24T01:59:19.408Z,16.70
2018-07-24T02:01:48.392Z,16.80
2018-07-24T02:04:17.335Z,16.80
2018-07-24T02:06:46.331Z,16.80
2018-07-24T02:09:15.331Z,16.80
2018-07-24T02:11:44.394Z,16.80
2018-07-24T02:14:13.394Z,16.80
2018-07-24T02:16:42.736Z,16.90
2018-07-24T02:19:11.862Z,16.80
2018-07-24T02:21:40.851Z,16.80
2018-07-24T02:24:09.889Z,16.80
2018-07-24T02:29:07.397Z,16.80
2018-07-24T02:31:36.367Z,16.80
2018-07-24T02:34:05.411Z,16.80
2018-07-24T02:36:34.492Z,16.80
2018-07-24T02:39:03.515Z,16.80
2018-07-24T02:41:32.538Z,16.90
2018-07-24T02:44:02.800Z,16.90
2018-07-24T02:46:32.014Z,16.90
2018-07-24T02:49:01.013Z,16.80
2018-07-24T02:51:30.079Z,16.80
2018-07-24T02:53:59.092Z,16.80
2018-07-24T02:56:28.733Z,16.80
2018-07-24T03:01:27.271Z,16.80
2018-07-24T03:03:56.365Z,16.70
2018-07-24T03:06:25.571Z,16.70
2018-07-24T03:08:54.565Z,16.70
2018-07-24T03:11:23.517Z,16.70
2018-07-24T03:16:21.140Z,16.70
2018-07-24T03:18:50.063Z,16.70
2018-07-24T03:21:19.036Z,16.70
2018-07-24T03:23:48.228Z,16.70
2018-07-24T03:26:17.421Z,16.70
2018-07-24T03:28:46.449Z,16.60
2018-07-24T03:31:15.412Z,16.60
2018-07-24T03:33:44.411Z,16.60
2018-07-24T03:36:13.392Z,16.60
2018-07-24T03:38:42.233Z,16.60
2018-07-24T03:41:11.211Z,16.50
2018-07-24T03:43:40.191Z,16.60
2018-07-24T03:46:09.182Z,16.50
2018-07-24T03:48:38.211Z,16.50
2018-07-24T03:51:07.215Z,16.50
2018-07-24T03:56:04.675Z,16.50
2018-07-24T03:58:33.671Z,16.50
2018-07-24T04:03:32.157Z,16.50
2018-07-24T04:06:01.097Z,16.50
2018-07-24T04:08:30.136Z,16.50
2018-07-24T04:10:59.075Z,16.50
2018-07-24T04:13:28.169Z,16.50
2018-07-24T04:15:57.155Z,16.50
2018-07-24T04:18:26.147Z,16.50
2018-07-24T04:20:55.158Z,16.50
2018-07-24T04:23:24.071Z,16.60
2018-07-24T04:25:52.979Z,16.70
2018-07-24T04:28:21.939Z,16.80
2018-07-24T04:30:51.048Z,16.90
2018-07-24T04:33:20.013Z,17.00
2018-07-24T04:35:49.054Z,17.10
2018-07-24T04:38:18.034Z,17.10
2018-07-24T04:40:47.031Z,17.20
2018-07-24T04:43:16.877Z,17.30
2018-07-24T04:45:45.804Z,17.40
2018-07-24T04:48:14.833Z,17.50
2018-07-24T04:50:45.135Z,17.50
2018-07-24T04:53:14.094Z,17.60
2018-07-24T04:58:11.613Z,17.80
2018-07-24T05:00:40.649Z,17.80
2018-07-24T05:03:09.620Z,17.90
2018-07-24T05:05:38.635Z,17.90
2018-07-24T05:08:07.793Z,17.90
2018-07-24T05:10:36.787Z,17.90
2018-07-24T05:13:05.770Z,17.90
2018-07-24T05:15:34.793Z,18.00
2018-07-24T05:18:03.720Z,18.00
2018-07-24T05:20:32.648Z,18.00
2018-07-24T05:23:01.714Z,18.00
2018-07-24T05:25:30.670Z,18.10
2018-07-24T05:27:59.648Z,18.10
2018-07-24T05:30:28.611Z,18.10
2018-07-24T05:32:57.572Z,18.20
2018-07-24T05:40:23.631Z,18.40
2018-07-24T05:42:52.851Z,18.60
2018-07-24T05:45:22.014Z,18.80
2018-07-24T05:47:51.184Z,18.90
2018-07-24T05:50:20.076Z,19.10
2018-07-24T05:52:49.130Z,19.20
2018-07-24T05:55:18.116Z,19.30
2018-07-24T05:57:47.067Z,19.40
2018-07-24T06:00:16.050Z,19.50
2018-07-24T06:02:45.113Z,19.50
2018-07-24T06:05:14.128Z,19.50
2018-07-24T06:07:43.132Z,19.50
2018-07-24T06:10:11.785Z,19.50
2018-07-24T06:12:40.739Z,19.50
2018-07-24T06:15:10.096Z,19.50
2018-07-24T06:17:39.050Z,19.50
2018-07-24T06:22:37.217Z,19.80
2018-07-24T06:25:06.209Z,19.90
2018-07-24T06:27:35.259Z,20.10
2018-07-24T06:30:05.455Z,20.30
2018-07-24T06:32:34.395Z,20.40
2018-07-24T06:35:03.456Z,20.60
2018-07-24T06:37:32.564Z,20.70
2018-07-24T06:40:01.642Z,20.80
2018-07-24T06:42:30.633Z,20.90
2018-07-24T06:45:00.730Z,21.10
2018-07-24T06:47:29.711Z,21.20
2018-07-24T06:49:58.693Z,21.40
2018-07-24T06:52:27.683Z,21.50
2018-07-24T06:54:56.730Z,21.70
2018-07-24T06:57:25.670Z,21.80
2018-07-24T06:59:54.690Z,22.00
2018-07-24T07:02:23.813Z,22.10
2018-07-24T07:04:52.839Z,22.30
2018-07-24T07:07:21.895Z,22.40
2018-07-24T07:09:50.931Z,22.50
2018-07-24T07:12:19.938Z,22.60
2018-07-24T07:14:48.993Z,22.80
2018-07-24T07:17:18.072Z,22.90
2018-07-24T07:19:47.013Z,23.00
2018-07-24T07:22:16.134Z,23.10
2018-07-24T07:24:45.211Z,23.30
2018-07-24T07:27:14.301Z,23.30
2018-07-24T07:29:43.378Z,23.30
2018-07-24T07:32:12.385Z,23.10
2018-07-24T07:34:42.873Z,23.10
2018-07-24T07:37:12.029Z,23.20
2018-07-24T07:39:41.119Z,23.20
2018-07-24T07:42:10.293Z,23.40
2018-07-24T07:44:39.275Z,23.40
2018-07-24T07:47:08.371Z,23.60
2018-07-24T07:49:37.389Z,23.80
2018-07-24T07:52:06.490Z,24.10
2018-07-24T07:57:03.951Z,24.70
2018-07-24T07:59:32.978Z,24.90
2018-07-24T08:02:02.034Z,25.20
2018-07-24T08:04:31.102Z,25.40
2018-07-24T08:07:00.099Z,25.60
2018-07-24T08:09:29.110Z,25.70
2018-07-24T08:11:58.155Z,25.90
2018-07-24T08:14:27.304Z,26.10
2018-07-24T08:16:56.510Z,26.30
2018-07-24T08:19:25.626Z,26.50
2018-07-24T08:21:54.582Z,26.70
2018-07-24T08:24:23.611Z,26.80
2018-07-24T08:26:52.708Z,27.10
2018-07-24T08:29:22.032Z,27.20
2018-07-24T08:31:51.155Z,27.30
2018-07-24T08:34:20.312Z,27.40
2018-07-24T08:36:49.391Z,27.30
2018-07-24T08:39:18.514Z,27.20
2018-07-24T08:41:47.517Z,27.30
2018-07-24T08:44:16.590Z,27.30
2018-07-24T08:46:45.610Z,27.50
2018-07-24T08:49:14.834Z,27.80
2018-07-24T08:51:43.830Z,27.90
2018-07-24T08:54:13.023Z,28.00
2018-07-24T08:56:41.991Z,28.10
2018-07-24T08:59:11.134Z,28.30
2018-07-24T09:01:40.143Z,28.50
2018-07-24T09:04:09.214Z,28.60
2018-07-24T09:06:38.302Z,28.50
2018-07-24T09:09:09.915Z,28.60
2018-07-24T09:11:38.991Z,28.70
2018-07-24T09:14:08.071Z,28.90
2018-07-24T09:16:37.555Z,29.10
2018-07-24T09:19:06.576Z,29.30
2018-07-24T09:21:35.591Z,29.60
2018-07-24T09:24:04.588Z,29.70
2018-07-24T09:26:33.678Z,29.80
2018-07-24T09:29:02.719Z,29.80
2018-07-24T09:31:31.751Z,29.70
2018-07-24T09:36:29.363Z,30.00
2018-07-24T09:38:58.385Z,30.10
2018-07-24T09:41:27.490Z,30.10
2018-07-24T09:43:56.618Z,30.20
2018-07-24T09:46:25.605Z,30.30
2018-07-24T09:48:54.611Z,30.40
2018-07-24T09:51:23.870Z,30.50
2018-07-24T09:53:52.952Z,30.40
2018-07-24T09:56:22.147Z,30.30
2018-07-24T09:58:51.214Z,30.50
2018-07-24T10:03:54.071Z,30.80
2018-07-24T10:06:23.151Z,30.60
2018-07-24T10:08:52.188Z,30.70
2018-07-24T10:11:21.169Z,31.00
2018-07-24T10:13:50.145Z,31.30
2018-07-24T10:16:19.250Z,31.60
2018-07-24T10:18:48.280Z,31.90
2018-07-24T10:21:17.387Z,31.60
2018-07-24T10:23:46.431Z,31.80
2018-07-24T10:26:15.349Z,31.70
2018-07-24T10:28:44.427Z,31.50
2018-07-24T10:31:13.539Z,31.60
2018-07-24T10:33:42.727Z,32.00
2018-07-24T10:36:11.797Z,32.30
2018-07-24T10:38:40.818Z,32.30
2018-07-24T10:41:09.816Z,32.10
2018-07-24T10:43:39.002Z,32.30
2018-07-24T10:46:08.081Z,32.60
2018-07-24T10:48:37.208Z,32.70
2018-07-24T10:51:06.123Z,32.50
2018-07-24T10:53:35.150Z,32.50
2018-07-24T10:56:04.209Z,32.60
2018-07-24T11:01:01.875Z,33.10
2018-07-24T11:03:30.858Z,33.10
2018-07-24T11:05:59.915Z,33.30
2018-07-24T11:08:28.937Z,33.50
2018-07-24T11:10:57.960Z,33.70
2018-07-24T11:13:26.985Z,34.00
2018-07-24T11:15:56.130Z,33.80
2018-07-24T11:18:25.152Z,33.70
2018-07-24T11:20:54.198Z,32.90
2018-07-24T11:23:23.180Z,32.70
2018-07-24T11:25:52.178Z,32.50
2018-07-24T11:28:21.262Z,32.20
2018-07-24T11:30:50.348Z,32.20
2018-07-24T11:33:19.557Z,32.30
2018-07-24T11:38:17.212Z,32.30
2018-07-24T11:40:46.196Z,31.90
2018-07-24T11:43:15.181Z,31.70
2018-07-24T11:45:44.251Z,31.80
2018-07-24T11:48:13.317Z,32.30
2018-07-24T11:50:42.834Z,32.70
2018-07-24T11:53:11.916Z,33.00
2018-07-24T11:55:40.914Z,33.20
2018-07-24T11:58:09.992Z,33.10
2018-07-24T12:00:39.020Z,33.40
2018-07-24T12:03:08.139Z,33.50
2018-07-24T12:05:37.214Z,33.70
2018-07-24T12:08:06.345Z,33.80
2018-07-24T12:10:35.331Z,33.90
2018-07-24T12:13:04.472Z,34.20
2018-07-24T12:15:33.482Z,34.30
2018-07-24T12:18:02.473Z,34.00
2018-07-24T12:20:31.571Z,34.10
2018-07-24T12:23:00.656Z,34.30
2018-07-24T12:25:30.032Z,34.60
2018-07-24T12:27:59.075Z,34.60
2018-07-24T12:30:28.071Z,34.50
2018-07-24T12:32:57.067Z,34.60
2018-07-24T12:35:26.138Z,34.60
2018-07-24T12:37:55.088Z,34.90
2018-07-24T12:40:24.259Z,34.80
2018-07-24T12:42:53.642Z,34.70
2018-07-24T12:45:22.621Z,34.90
2018-07-24T12:47:51.696Z,35.10
2018-07-24T12:50:20.802Z,35.10
2018-07-24T12:52:50.783Z,35.10
2018-07-24T12:55:19.806Z,35.10
2018-07-24T12:57:48.897Z,35.00
2018-07-24T13:00:18.014Z,35.00
2018-07-24T13:02:47.046Z,35.10
2018-07-24T13:05:16.281Z,35.10
2018-07-24T13:07:45.411Z,35.00
2018-07-24T13:10:20.810Z,35.10
2018-07-24T13:12:49.861Z,35.50
2018-07-24T13:15:18.875Z,36.00
2018-07-24T13:17:47.883Z,36.50
2018-07-24T13:20:17.038Z,37.00
2018-07-24T13:22:46.218Z,37.20
2018-07-24T13:25:15.326Z,37.50
2018-07-24T13:27:44.383Z,37.20
2018-07-24T13:30:13.458Z,36.90
2018-07-24T13:32:42.647Z,36.90
2018-07-24T13:35:11.802Z,37.10
2018-07-24T13:37:40.883Z,37.60
2018-07-24T13:40:09.860Z,38.20
2018-07-24T13:42:38.901Z,38.20
2018-07-24T13:45:08.012Z,38.90
2018-07-24T13:47:37.046Z,39.40
2018-07-24T13:50:06.211Z,40.10
2018-07-24T13:52:35.263Z,40.50
2018-07-24T13:55:04.387Z,40.80
2018-07-24T13:57:33.501Z,41.10
2018-07-24T14:00:02.448Z,41.30
2018-07-24T14:02:31.593Z,41.40
2018-07-24T14:05:00.542Z,41.40
2018-07-24T14:07:30.412Z,41.70
2018-07-24T14:09:59.508Z,42.10
2018-07-24T14:12:28.606Z,42.20
2018-07-24T14:14:57.618Z,41.10
2018-07-24T14:17:26.763Z,41.00
2018-07-24T14:19:55.895Z,41.40
2018-07-24T14:22:25.066Z,41.90
2018-07-24T14:24:54.105Z,42.60
2018-07-24T14:27:23.149Z,43.10
2018-07-24T14:29:52.245Z,43.10
2018-07-24T14:32:22.181Z,42.90
2018-07-24T14:34:51.246Z,42.90
2018-07-24T14:37:20.338Z,42.60
2018-07-24T14:39:49.360Z,42.70
2018-07-24T14:42:18.460Z,42.70
2018-07-24T14:44:47.515Z,42.50
2018-07-24T14:47:16.559Z,42.70
2018-07-24T14:49:45.552Z,42.90
2018-07-24T14:52:14.565Z,43.30
2018-07-24T14:54:43.668Z,43.60
2018-07-24T14:57:12.622Z,43.30
2018-07-24T14:59:41.545Z,43.20
2018-07-24T15:02:10.671Z,42.70
2018-07-24T15:04:39.688Z,42.90
2018-07-24T15:07:08.646Z,43.30
2018-07-24T15:09:37.635Z,43.60
2018-07-24T15:12:06.947Z,43.70
2018-07-24T15:14:35.949Z,43.60
2018-07-24T15:17:04.692Z,43.60
2018-07-24T15:19:33.375Z,43.70
2018-07-24T15:22:02.009Z,43.90
2018-07-24T15:24:33.805Z,44.00
2018-07-24T15:27:02.556Z,43.90
2018-07-24T15:29:31.221Z,44.20
2018-07-24T15:31:59.893Z,44.40
2018-07-24T15:34:28.703Z,44.40
2018-07-24T15:36:57.332Z,43.80
2018-07-24T15:39:25.958Z,43.70
2018-07-24T15:41:54.707Z,43.70
2018-07-24T15:44:23.459Z,44.00
2018-07-24T15:49:20.477Z,44.10
2018-07-24T15:51:49.704Z,44.00
2018-07-24T15:54:18.822Z,43.70
2018-07-24T15:59:27.873Z,43.50
2018-07-24T16:01:56.475Z,43.40
2018-07-24T16:04:26.696Z,43.30
2018-07-24T16:06:55.690Z,43.10
2018-07-24T16:09:24.496Z,42.90
2018-07-24T16:11:53.700Z,42.70
2018-07-24T16:14:29.335Z,42.50
2018-07-24T16:16:58.972Z,42.10
2018-07-24T16:19:28.284Z,41.90
2018-07-24T16:21:57.406Z,41.60
2018-07-24T16:24:26.592Z,41.40
2018-07-24T16:26:55.766Z,41.20
2018-07-24T16:29:25.035Z,40.70
2018-07-24T16:31:54.107Z,39.80
2018-07-24T16:36:51.983Z,36.00
2018-07-24T16:39:21.169Z,34.10
2018-07-24T16:41:50.265Z,32.50
2018-07-24T16:44:19.532Z,31.20
2018-07-24T16:46:48.699Z,30.40
2018-07-24T16:49:17.891Z,29.50
2018-07-24T16:51:47.035Z,28.90
2018-07-24T16:54:16.232Z,28.40
2018-07-24T16:56:45.475Z,28.20
2018-07-24T16:59:15.300Z,27.90
2018-07-24T17:01:44.600Z,27.70
2018-07-24T17:04:13.751Z,27.50
2018-07-24T17:06:42.986Z,27.30
2018-07-24T17:09:13.072Z,27.10
2018-07-24T17:11:42.363Z,26.90
2018-07-24T17:14:11.612Z,26.70
2018-07-24T17:16:40.760Z,26.50
2018-07-24T17:19:10.059Z,26.30
2018-07-24T17:21:39.306Z,26.10
2018-07-24T17:24:08.525Z,26.00
2018-07-24T17:26:37.747Z,25.90
2018-07-24T17:29:07.430Z,25.80
2018-07-24T17:31:36.611Z,25.80
2018-07-24T17:34:05.791Z,25.80
2018-07-24T17:36:34.907Z,25.70
2018-07-24T17:39:04.186Z,25.60
2018-07-24T17:41:33.352Z,25.40
2018-07-24T17:44:02.535Z,25.30
2018-07-24T17:46:31.751Z,25.20
2018-07-24T17:49:00.978Z,25.10
2018-07-24T17:51:30.130Z,24.90
2018-07-24T17:53:59.332Z,24.80
2018-07-24T17:56:28.514Z,24.70
2018-07-24T17:58:57.645Z,24.60
2018-07-24T18:01:26.870Z,24.50
2018-07-24T18:03:56.084Z,24.40
2018-07-24T18:06:25.230Z,24.20
2018-07-24T18:08:54.429Z,24.10
2018-07-24T18:11:23.615Z,23.90
2018-07-24T18:13:52.822Z,23.80
2018-07-24T18:16:22.032Z,23.80
2018-07-24T18:18:51.231Z,23.70
2018-07-24T18:21:20.449Z,23.60
2018-07-24T18:23:49.774Z,23.50
2018-07-24T18:26:19.048Z,23.40
2018-07-24T18:28:48.191Z,23.30
2018-07-24T18:31:17.435Z,23.20
2018-07-24T18:33:46.682Z,23.20
2018-07-24T18:36:15.888Z,23.00
2018-07-24T18:38:45.148Z,23.00
2018-07-24T18:41:14.326Z,22.90
2018-07-24T18:43:43.631Z,22.80
2018-07-24T18:46:12.779Z,22.70
2018-07-24T18:48:41.987Z,22.60
2018-07-24T18:51:11.132Z,22.50
2018-07-24T18:53:40.310Z,22.50
2018-07-24T18:56:09.531Z,22.40
2018-07-24T18:58:38.698Z,22.30
2018-07-24T19:01:07.887Z,22.20
2018-07-24T19:03:37.055Z,22.10
2018-07-24T19:06:06.223Z,22.00
2018-07-24T19:08:35.492Z,22.00
2018-07-24T19:11:04.646Z,21.90
2018-07-24T19:13:33.876Z,21.90
2018-07-24T19:16:03.036Z,21.80
2018-07-24T19:18:32.212Z,21.70
2018-07-24T19:21:01.411Z,21.70
2018-07-24T19:23:30.619Z,21.60
2018-07-24T19:25:59.751Z,21.60
2018-07-24T19:28:28.826Z,21.50
2018-07-24T19:30:58.206Z,21.50
2018-07-24T19:33:27.450Z,21.50
2018-07-24T19:35:56.663Z,21.50
2018-07-24T19:38:25.892Z,21.50
2018-07-24T19:40:55.144Z,21.50
2018-07-24T19:43:24.623Z,21.40
2018-07-24T19:45:53.752Z,21.40
2018-07-24T19:48:22.890Z,21.30
2018-07-24T19:50:52.024Z,21.30
2018-07-24T19:53:21.214Z,21.40
2018-07-24T19:55:50.317Z,21.40
2018-07-24T19:58:19.512Z,21.40
2018-07-24T20:00:48.689Z,21.40
2018-07-24T20:03:17.865Z,21.30
2018-07-24T20:05:46.951Z,21.30
2018-07-24T20:08:16.212Z,21.30
2018-07-24T20:10:45.412Z,21.20
2018-07-24T20:13:14.645Z,21.20
2018-07-24T20:15:43.795Z,21.20
2018-07-24T20:18:12.962Z,21.20
2018-07-24T20:20:42.241Z,21.20
2018-07-24T20:23:11.682Z,21.20
2018-07-24T20:25:40.769Z,21.20
2018-07-24T20:28:10.032Z,21.20
2018-07-24T20:30:39.299Z,21.20
2018-07-24T20:33:08.414Z,21.20
2018-07-24T20:35:37.557Z,21.20
2018-07-24T20:38:06.768Z,21.20
2018-07-24T20:40:35.913Z,21.20
2018-07-24T20:43:05.076Z,21.20
2018-07-24T20:45:34.329Z,21.20
2018-07-24T20:48:03.560Z,21.20
2018-07-24T20:50:32.691Z,21.20
2018-07-24T20:53:01.906Z,21.20
2018-07-24T20:55:31.105Z,21.20
2018-07-24T20:58:00.263Z,21.10
2018-07-24T21:00:29.556Z,21.10
2018-07-24T21:02:58.732Z,21.10
2018-07-24T21:05:27.952Z,21.10
2018-07-24T21:07:57.436Z,21.10
2018-07-24T21:10:26.592Z,21.10
2018-07-24T21:13:02.301Z,21.10
2018-07-24T21:15:31.404Z,21.10
2018-07-24T21:18:00.581Z,21.10
2018-07-24T21:20:29.845Z,21.10
2018-07-24T21:25:27.723Z,21.10
2018-07-24T21:27:56.962Z,21.10
2018-07-24T21:30:26.150Z,21.10
2018-07-24T21:32:55.301Z,21.10
2018-07-24T21:35:24.432Z,21.10
2018-07-24T21:37:53.592Z,21.10
2018-07-24T21:40:22.730Z,21.10
2018-07-24T21:42:51.994Z,21.10
2018-07-24T21:45:22.270Z,21.10
2018-07-24T21:47:51.391Z,21.10
2018-07-24T21:50:20.657Z,21.10
2018-07-24T21:52:49.857Z,21.00
2018-07-24T21:55:19.066Z,21.00
2018-07-24T21:57:48.150Z,21.00
2018-07-24T22:00:17.396Z,20.90
2018-07-24T22:02:46.525Z,20.90
2018-07-24T22:05:15.743Z,20.80
2018-07-24T22:07:44.897Z,20.80
2018-07-24T22:10:19.171Z,20.70
2018-07-24T22:12:48.328Z,20.70
2018-07-24T22:15:23.689Z,20.70
2018-07-24T22:17:53.219Z,20.60
2018-07-24T22:20:22.853Z,20.60
2018-07-24T22:22:52.532Z,20.60
2018-07-24T22:25:21.716Z,20.50
2018-07-24T22:27:50.912Z,20.40
2018-07-24T22:30:20.092Z,20.30
2018-07-24T22:32:49.311Z,20.30
2018-07-24T22:35:18.506Z,20.20
2018-07-24T22:37:47.754Z,20.10
2018-07-24T22:40:16.891Z,20.00
2018-07-24T22:42:46.048Z,19.90
2018-07-24T22:45:15.209Z,19.80
2018-07-24T22:47:44.415Z,19.70
2018-07-24T22:50:13.640Z,19.70
2018-07-24T22:52:42.763Z,19.60
2018-07-24T22:55:11.900Z,19.50
2018-07-24T22:57:41.069Z,19.40
2018-07-24T23:00:09.975Z,19.30
2018-07-24T23:02:39.225Z,19.30
2018-07-24T23:05:08.412Z,19.20
2018-07-24T23:07:37.672Z,19.10
2018-07-24T23:10:06.892Z,19.10
2018-07-24T23:12:36.073Z,19.00
2018-07-24T23:15:05.533Z,19.00
2018-07-24T23:17:34.721Z,18.90
2018-07-24T23:20:03.869Z,18.90
2018-07-24T23:22:33.112Z,18.80
2018-07-24T23:25:02.371Z,18.80
2018-07-24T23:27:31.523Z,18.70
2018-07-24T23:30:00.752Z,18.60
2018-07-24T23:32:29.964Z,18.60
2018-07-24T23:34:59.127Z,18.50
2018-07-24T23:37:28.214Z,18.50
2018-07-24T23:39:57.313Z,18.50
2018-07-24T23:42:26.431Z,18.60
2018-07-24T23:44:55.528Z,18.50
2018-07-24T23:47:24.737Z,18.50
2018-07-24T23:49:53.892Z,18.50
2018-07-24T23:52:23.007Z,18.40
2018-07-24T23:54:52.145Z,18.40
2018-07-24T23:57:21.233Z,18.40
2018-07-24T23:59:50.488Z,18.30
